createdAt,value
2022-11-14T00:00:35.201Z,101798.41
2022-11-14T00:03:07.630Z,101790.41
2022-11-14T00:05:45.554Z,101801.53
2022-11-14T00:08:27.730Z,101791.44
2022-11-14T00:10:58.249Z,101795.75
2022-11-14T00:13:28.390Z,101794.72
2022-11-14T00:15:58.708Z,101796.81
2022-11-14T00:18:29.204Z,101787.72
2022-11-14T00:20:59.711Z,101787.34
2022-11-14T00:23:29.963Z,101783.16
2022-11-14T00:26:00.131Z,101781.59
2022-11-14T00:28:30.626Z,101773.34
2022-11-14T00:31:00.992Z,101762.06
2022-11-14T00:33:31.212Z,101771.97
2022-11-14T00:36:01.522Z,101773.09
2022-11-14T00:38:31.947Z,101770.38
2022-11-14T00:41:02.285Z,101761.34
2022-11-14T00:43:32.757Z,101765.44
2022-11-14T00:46:02.937Z,101760.78
2022-11-14T00:48:33.235Z,101753.28
2022-11-14T00:51:03.633Z,101757.09
2022-11-14T00:53:33.928Z,101750.09
2022-11-14T00:56:05.411Z,101741.56
2022-11-14T00:58:35.534Z,101742.97
2022-11-14T01:01:06.147Z,101741.84
2022-11-14T01:03:36.449Z,101742.41
2022-11-14T01:06:11.546Z,101740.16
2022-11-14T01:08:42.246Z,101738.44
2022-11-14T01:11:20.192Z,101730.91
2022-11-14T01:13:50.515Z,101733.09
2022-11-14T01:16:20.302Z,101727.78
2022-11-14T01:18:47.651Z,101724.81
2022-11-14T01:21:17.044Z,101718.28
2022-11-14T01:23:44.556Z,101720.81
2022-11-14T01:26:15.393Z,101719.03
2022-11-14T01:28:44.417Z,101717.31
2022-11-14T01:31:21.269Z,101712.88
2022-11-14T01:33:54.057Z,101708.69
2022-11-14T01:36:24.024Z,101709.22
2022-11-14T01:38:55.477Z,101701.22
2022-11-14T01:41:25.634Z,101709.56
2022-11-14T01:43:55.917Z,101707.06
2022-11-14T01:46:38.680Z,101704.34
2022-11-14T01:49:42.534Z,101695.66
2022-11-14T01:52:27.528Z,101695.75
2022-11-14T01:55:04.979Z,101691.75
2022-11-14T01:57:48.220Z,101687.69
2022-11-14T02:00:18.622Z,101692.09
2022-11-14T02:02:49.367Z,101677.31
2022-11-14T02:05:20.183Z,101678.91
2022-11-14T02:07:52.951Z,101676.84
2022-11-14T02:10:23.476Z,101672.47
2022-11-14T02:12:54.076Z,101675.22
2022-11-14T02:15:22.769Z,101671.16
2022-11-14T02:17:52.212Z,101669.88
2022-11-14T02:20:32.626Z,101670.06
2022-11-14T02:23:02.237Z,101668.41
2022-11-14T02:25:31.994Z,101658.31
2022-11-14T02:28:02.834Z,101657.44
2022-11-14T02:30:31.010Z,101651.13
2022-11-14T02:33:15.018Z,101647.81
2022-11-14T02:35:44.737Z,101647.53
2022-11-14T02:38:14.574Z,101653.69
2022-11-14T02:40:44.778Z,101640.16
2022-11-14T02:43:14.516Z,101638.88
2022-11-14T02:45:44.467Z,101632.50
2022-11-14T02:48:14.320Z,101631.16
2022-11-14T02:50:44.953Z,101628.50
2022-11-14T02:53:15.122Z,101629.25
2022-11-14T02:55:44.602Z,101627.88
2022-11-14T02:58:14.559Z,101622.44
2022-11-14T03:01:13.535Z,101613.31
2022-11-14T03:03:33.496Z,101615.47
2022-11-14T03:06:04.645Z,101616.31
2022-11-14T03:08:33.371Z,101612.50
2022-11-14T03:11:10.517Z,101614.47
2022-11-14T03:13:40.691Z,101609.75
2022-11-14T03:16:14.513Z,101613.03
2022-11-14T03:18:42.339Z,101614.94
2022-11-14T03:21:20.336Z,101619.97
2022-11-14T03:23:49.917Z,101611.91
2022-11-14T03:26:19.263Z,101604.22
2022-11-14T03:28:49.306Z,101606.34
2022-11-14T03:31:21.342Z,101605.28
2022-11-14T03:33:49.171Z,101599.22
2022-11-14T03:36:18.950Z,101601.66
2022-11-14T03:38:49.082Z,101592.91
2022-11-14T03:41:19.024Z,101589.28
2022-11-14T03:43:48.912Z,101587.16
2022-11-14T03:46:18.646Z,101572.25
2022-11-14T03:48:48.991Z,101567.03
2022-11-14T03:51:18.476Z,101556.53
2022-11-14T03:53:48.267Z,101573.59
2022-11-14T03:56:18.042Z,101570.00
2022-11-14T03:58:48.133Z,101571.09
2022-11-14T04:01:18.227Z,101561.50
2022-11-14T04:03:48.014Z,101558.50
2022-11-14T04:06:17.783Z,101551.88
2022-11-14T04:08:47.657Z,101558.69
2022-11-14T04:11:18.026Z,101556.16
2022-11-14T04:13:47.245Z,101555.69
2022-11-14T04:16:17.053Z,101553.22
2022-11-14T04:18:46.963Z,101555.97
2022-11-14T04:21:16.733Z,101554.03
2022-11-14T04:23:46.797Z,101555.69
2022-11-14T04:26:16.622Z,101561.66
2022-11-14T04:28:46.537Z,101555.88
2022-11-14T04:31:16.322Z,101547.69
2022-11-14T04:33:46.087Z,101561.13
2022-11-14T04:36:15.924Z,101555.88
2022-11-14T04:38:45.813Z,101550.63
2022-11-14T04:41:15.622Z,101552.50
2022-11-14T04:43:50.513Z,101556.63
2022-11-14T04:46:21.035Z,101546.97
2022-11-14T04:48:50.794Z,101543.94
2022-11-14T04:51:20.797Z,101549.44
2022-11-14T04:53:50.533Z,101545.81
2022-11-14T04:56:23.433Z,101537.03
2022-11-14T04:58:53.344Z,101538.13
2022-11-14T05:01:22.241Z,101532.09
2022-11-14T05:03:50.156Z,101529.63
2022-11-14T05:06:18.546Z,101530.97
2022-11-14T05:08:48.577Z,101534.63
2022-11-14T05:11:24.201Z,101530.19
2022-11-14T05:13:58.118Z,101531.25
2022-11-14T05:16:28.352Z,101525.75
2022-11-14T05:18:58.407Z,101525.25
2022-11-14T05:21:28.478Z,101526.88
2022-11-14T05:23:58.614Z,101527.44
2022-11-14T05:26:28.675Z,101518.69
2022-11-14T05:28:58.812Z,101527.44
2022-11-14T05:31:28.874Z,101519.19
2022-11-14T05:33:58.949Z,101518.19
2022-11-14T05:36:29.036Z,101518.13
2022-11-14T05:38:59.286Z,101520.03
2022-11-14T05:41:29.357Z,101519.81
2022-11-14T05:43:59.414Z,101504.69
2022-11-14T05:46:32.854Z,101505.81
2022-11-14T05:49:03.008Z,101501.88
2022-11-14T05:51:34.729Z,101500.78
2022-11-14T05:54:05.857Z,101492.25
2022-11-14T05:56:36.767Z,101493.19
2022-11-14T05:59:06.955Z,101495.88
2022-11-14T06:01:37.113Z,101489.59
2022-11-14T06:04:10.765Z,101489.88
2022-11-14T06:06:38.732Z,101482.69
2022-11-14T06:09:10.188Z,101488.13
2022-11-14T06:11:38.632Z,101482.88
2022-11-14T06:14:10.879Z,101477.38
2022-11-14T06:16:41.445Z,101482.31
2022-11-14T06:19:11.570Z,101480.06
2022-11-14T06:21:41.650Z,101483.19
2022-11-14T06:24:11.752Z,101482.56
2022-11-14T06:26:41.955Z,101480.06
2022-11-14T06:29:12.114Z,101482.25
2022-11-14T06:31:42.157Z,101491.00
2022-11-14T06:34:13.311Z,101486.84
2022-11-14T06:36:43.437Z,101484.28
2022-11-14T06:39:13.511Z,101490.06
2022-11-14T06:41:43.567Z,101487.84
2022-11-14T06:44:15.173Z,101486.78
2022-11-14T06:46:45.223Z,101497.75
2022-11-14T06:49:15.305Z,101500.19
2022-11-14T06:51:45.371Z,101500.44
2022-11-14T06:54:15.512Z,101498.81
2022-11-14T06:56:46.365Z,101493.63
2022-11-14T06:59:16.513Z,101501.81
2022-11-14T07:01:46.557Z,101499.13
2022-11-14T07:04:16.784Z,101502.22
2022-11-14T07:06:46.880Z,101497.59
2022-11-14T07:09:16.939Z,101502.25
2022-11-14T07:11:47.845Z,101507.97
2022-11-14T07:14:17.901Z,101500.03
2022-11-14T07:16:48.183Z,101489.34
2022-11-14T07:19:18.157Z,101499.28
2022-11-14T07:21:48.705Z,101482.22
2022-11-14T07:24:18.972Z,101487.75
2022-11-14T07:26:49.078Z,101482.00
2022-11-14T07:29:19.186Z,101487.56
2022-11-14T07:31:49.298Z,101486.19
2022-11-14T07:34:19.569Z,101482.63
2022-11-14T07:36:50.809Z,101486.19
2022-11-14T07:39:21.315Z,101488.38
2022-11-14T07:41:51.479Z,101487.25
2022-11-14T07:44:21.615Z,101487.56
2022-11-14T07:46:54.699Z,101488.94
2022-11-14T07:49:24.779Z,101490.63
2022-11-14T07:51:54.887Z,101498.31
2022-11-14T07:54:24.979Z,101493.63
2022-11-14T07:56:55.117Z,101493.63
2022-11-14T07:59:25.198Z,101485.38
2022-11-14T08:01:55.311Z,101496.44
2022-11-14T08:04:26.252Z,101482.13
2022-11-14T08:06:56.474Z,101478.31
2022-11-14T08:09:25.233Z,101479.69
2022-11-14T08:11:53.880Z,101484.16
2022-11-14T08:14:22.279Z,101482.78
2022-11-14T08:16:51.234Z,101489.41
2022-11-14T08:19:19.229Z,101480.06
2022-11-14T08:21:47.557Z,101475.13
2022-11-14T08:24:15.947Z,101465.81
2022-11-14T08:26:44.514Z,101473.81
2022-11-14T08:29:13.108Z,101472.72
2022-11-14T08:31:41.546Z,101474.09
2022-11-14T08:34:13.182Z,101465.81
2022-11-14T08:36:42.199Z,101474.91
2022-11-14T08:39:10.529Z,101467.75
2022-11-14T08:41:40.153Z,101468.03
2022-11-14T08:44:07.759Z,101472.16
2022-11-14T08:46:35.980Z,101465.25
2022-11-14T08:49:04.490Z,101460.84
2022-11-14T08:51:32.883Z,101469.66
2022-11-14T08:54:01.280Z,101474.63
2022-11-14T08:56:29.687Z,101472.44
2022-11-14T08:58:58.113Z,101471.34
2022-11-14T09:01:26.563Z,101474.41
2022-11-14T09:03:59.544Z,101461.16
2022-11-14T09:06:30.165Z,101459.78
2022-11-14T09:08:59.954Z,101457.31
2022-11-14T09:11:32.562Z,101445.50
2022-11-14T09:14:01.491Z,101438.88
2022-11-14T09:16:29.803Z,101439.41
2022-11-14T09:19:00.239Z,101446.00
2022-11-14T09:21:29.878Z,101443.25
2022-11-14T09:24:01.868Z,101440.19
2022-11-14T09:26:32.163Z,101451.50
2022-11-14T09:29:02.349Z,101449.56
2022-11-14T09:31:32.465Z,101446.81
2022-11-14T09:34:02.220Z,101440.44
2022-11-14T09:36:32.006Z,101444.28
2022-11-14T09:39:01.895Z,101442.97
2022-11-14T09:42:16.931Z,101442.88
2022-11-14T09:45:12.180Z,101440.31
2022-11-14T09:48:04.901Z,101430.50
2022-11-14T09:50:51.310Z,101433.41
2022-11-14T09:53:53.806Z,101432.19
2022-11-14T09:56:27.042Z,101423.66
2022-11-14T09:58:57.722Z,101423.56
2022-11-14T10:01:55.317Z,101418.41
2022-11-14T10:05:15.196Z,101406.44
2022-11-14T10:08:32.092Z,101398.53
2022-11-14T10:11:38.702Z,101410.44
2022-11-14T10:14:50.409Z,101399.19
2022-11-14T10:18:19.793Z,101416.34
2022-11-14T10:21:12.748Z,101415.94
2022-11-14T10:24:32.632Z,101406.94
2022-11-14T10:27:30.237Z,101412.28
2022-11-14T10:30:18.665Z,101395.66
2022-11-14T10:33:10.873Z,101390.38
2022-11-14T10:36:41.332Z,101397.00
2022-11-14T10:39:30.560Z,101382.13
2022-11-14T10:42:23.895Z,101389.06
2022-11-14T10:45:27.899Z,101389.38
2022-11-14T10:48:12.812Z,101374.94
2022-11-14T10:51:16.544Z,101379.03
2022-11-14T10:54:17.703Z,101372.25
2022-11-14T10:56:51.641Z,101367.78
2022-11-14T10:59:22.328Z,101358.41
2022-11-14T11:01:53.999Z,101361.59
2022-11-14T11:04:34.174Z,101360.72
2022-11-14T11:07:10.203Z,101354.66
2022-11-14T11:10:00.036Z,101348.19
2022-11-14T11:12:53.423Z,101350.66
2022-11-14T11:15:42.179Z,101343.53
2022-11-14T11:18:36.760Z,101339.88
2022-11-14T11:21:18.992Z,101333.91
2022-11-14T11:23:50.501Z,101325.72
2022-11-14T11:26:32.884Z,101325.00
2022-11-14T11:29:10.868Z,101324.53
2022-11-14T11:31:52.969Z,101310.88
2022-11-14T11:34:33.076Z,101316.69
2022-11-14T11:37:33.200Z,101309.06
2022-11-14T11:40:16.109Z,101313.72
2022-11-14T11:45:54.804Z,101298.00
2022-11-14T11:48:40.478Z,101304.13
2022-11-14T11:51:22.675Z,101300.19
2022-11-14T11:54:22.742Z,101295.28
2022-11-14T11:57:21.199Z,101291.47
2022-11-14T12:00:14.526Z,101302.72
2022-11-14T12:02:50.647Z,101287.59
2022-11-14T12:05:41.443Z,101288.31
2022-11-14T12:09:07.129Z,101289.13
2022-11-14T12:11:47.597Z,101291.88
2022-11-14T12:15:11.252Z,101290.38
2022-11-14T12:18:47.818Z,101289.06
2022-11-14T12:22:07.363Z,101288.16
2022-11-14T12:25:07.471Z,101290.16
2022-11-14T12:27:40.036Z,101291.22
2022-11-14T12:30:24.883Z,101294.78
2022-11-14T12:33:02.974Z,101287.22
2022-11-14T12:35:37.477Z,101278.28
2022-11-14T12:38:21.180Z,101280.00
2022-11-14T12:40:59.272Z,101280.84
2022-11-14T12:43:39.080Z,101291.84
2022-11-14T12:46:13.941Z,101281.97
2022-11-14T12:48:47.202Z,101273.75
2022-11-14T12:51:37.379Z,101276.53
2022-11-14T12:54:46.936Z,101273.94
2022-11-14T12:58:11.722Z,101276.34
2022-11-14T13:00:50.415Z,101273.59
2022-11-14T13:03:38.467Z,101273.25
2022-11-14T13:06:53.580Z,101266.50
2022-11-14T13:10:16.503Z,101263.56
2022-11-14T13:13:36.448Z,101253.84
2022-11-14T13:16:23.810Z,101254.25
2022-11-14T13:19:14.023Z,101251.50
2022-11-14T13:22:14.721Z,101259.88
2022-11-14T13:25:01.655Z,101257.72
2022-11-14T13:28:06.009Z,101252.19
2022-11-14T13:31:21.001Z,101250.97
2022-11-14T13:34:00.723Z,101250.44
2022-11-14T13:37:28.744Z,101245.31
2022-11-14T13:40:23.595Z,101235.25
2022-11-14T13:44:09.493Z,101243.56
2022-11-14T13:47:13.278Z,101228.81
2022-11-14T13:50:10.763Z,101233.91
2022-11-14T13:52:49.160Z,101232.88
2022-11-14T13:55:33.354Z,101235.97
2022-11-14T13:58:42.602Z,101219.13
2022-11-14T14:01:29.533Z,101224.66
2022-11-14T14:05:00.857Z,101225.00
2022-11-14T14:08:36.124Z,101220.84
2022-11-14T14:11:48.450Z,101228.22
2022-11-14T14:14:38.614Z,101221.00
2022-11-14T14:17:54.404Z,101213.97
2022-11-14T14:20:37.485Z,101205.84
2022-11-14T14:23:53.044Z,101197.59
2022-11-14T14:27:00.583Z,101207.88
2022-11-14T14:30:23.101Z,101197.88
2022-11-14T14:33:15.940Z,101195.22
2022-11-14T14:35:54.495Z,101192.00
2022-11-14T14:38:29.454Z,101191.31
2022-11-14T14:40:58.467Z,101193.38
2022-11-14T14:43:34.525Z,101188.91
2022-11-14T14:46:05.340Z,101184.84
2022-11-14T14:48:42.171Z,101182.22
2022-11-14T14:51:15.113Z,101173.88
2022-11-14T14:53:54.155Z,101173.19
2022-11-14T14:59:31.232Z,101172.50
2022-11-14T15:02:01.460Z,101163.22
2022-11-14T15:04:41.835Z,101168.00
2022-11-14T15:07:29.178Z,101162.81
2022-11-14T15:10:04.309Z,101168.47
2022-11-14T15:12:36.090Z,101166.72
2022-11-14T15:15:15.633Z,101174.00
2022-11-14T15:17:49.494Z,101173.84
2022-11-14T15:20:28.844Z,101172.00
2022-11-14T15:23:11.223Z,101171.25
2022-11-14T15:25:43.157Z,101170.75
2022-11-14T15:28:21.623Z,101171.06
2022-11-14T15:31:05.972Z,101168.03
2022-11-14T15:33:36.311Z,101168.94
2022-11-14T15:36:18.015Z,101163.00
2022-11-14T15:39:31.508Z,101161.41
2022-11-14T15:42:24.755Z,101159.81
2022-11-14T15:44:55.600Z,101153.25
2022-11-14T15:47:40.236Z,101157.41
2022-11-14T15:50:12.982Z,101151.69
2022-11-14T15:52:59.226Z,101141.22
2022-11-14T15:55:29.753Z,101146.53
2022-11-14T15:58:21.493Z,101151.50
2022-11-14T16:00:54.318Z,101143.25
2022-11-14T16:03:24.841Z,101139.16
2022-11-14T16:05:54.987Z,101140.59
2022-11-14T16:08:25.095Z,101137.53
2022-11-14T16:10:53.555Z,101141.69
2022-11-14T16:13:21.983Z,101140.31
2022-11-14T16:15:50.782Z,101146.41
2022-11-14T16:18:18.847Z,101133.19
2022-11-14T16:20:47.744Z,101144.50
2022-11-14T16:23:15.755Z,101152.78
2022-11-14T16:25:44.794Z,101161.91
2022-11-14T16:28:12.601Z,101156.44
2022-11-14T16:30:41.749Z,101164.25
2022-11-14T16:33:11.981Z,101163.69
2022-11-14T16:35:42.100Z,101169.78
2022-11-14T16:38:14.153Z,101173.94
2022-11-14T16:40:45.159Z,101166.81
2022-11-14T16:43:15.772Z,101162.38
2022-11-14T16:45:46.484Z,101144.22
2022-11-14T16:48:16.671Z,101151.66
2022-11-14T16:50:46.844Z,101144.22
2022-11-14T16:53:16.940Z,101146.44
2022-11-14T16:55:47.088Z,101142.88
2022-11-14T16:58:17.398Z,101135.47
2022-11-14T17:00:47.496Z,101142.09
2022-11-14T17:03:18.656Z,101136.84
2022-11-14T17:05:52.503Z,101141.53
2022-11-14T17:08:22.578Z,101142.09
2022-11-14T17:10:52.781Z,101151.72
2022-11-14T17:13:25.578Z,101150.63
2022-11-14T17:16:02.449Z,101155.34
2022-11-14T17:18:37.107Z,101150.16
2022-11-14T17:21:12.651Z,101151.25
2022-11-14T17:23:42.743Z,101161.44
2022-11-14T17:26:14.623Z,101156.78
2022-11-14T17:28:46.372Z,101157.88
2022-11-14T17:31:17.274Z,101150.47
2022-11-14T17:33:54.691Z,101152.94
2022-11-14T17:36:26.448Z,101144.69
2022-11-14T17:38:58.165Z,101143.03
2022-11-14T17:41:29.184Z,101140.28
2022-11-14T17:44:02.636Z,101139.19
2022-11-14T17:46:33.306Z,101135.34
2022-11-14T17:49:04.200Z,101122.41
2022-11-14T17:51:34.417Z,101127.38
2022-11-14T17:54:06.634Z,101133.13
2022-11-14T17:56:38.071Z,101127.38
2022-11-14T17:59:12.916Z,101131.50
2022-11-14T18:01:43.191Z,101132.84
2022-11-14T18:04:13.540Z,101133.69
2022-11-14T18:06:43.824Z,101129.00
2022-11-14T18:09:14.709Z,101121.59
2022-11-14T18:11:45.009Z,101124.06
2022-11-14T18:14:15.399Z,101126.00
2022-11-14T18:17:11.303Z,101124.34
2022-11-14T18:19:36.878Z,101116.94
2022-11-14T18:22:07.041Z,101107.88
2022-11-14T18:24:37.312Z,101120.22
2022-11-14T18:27:07.499Z,101103.75
2022-11-14T18:29:37.755Z,101102.06
2022-11-14T18:32:07.832Z,101101.53
2022-11-14T18:34:38.150Z,101097.13
2022-11-14T18:37:08.337Z,101087.78
2022-11-14T18:39:38.532Z,101089.44
2022-11-14T18:42:12.403Z,101088.59
2022-11-14T18:44:43.446Z,101090.81
2022-11-14T18:47:13.545Z,101086.94
2022-11-14T18:49:43.767Z,101095.75
2022-11-14T18:52:17.401Z,101087.25
2022-11-14T18:54:47.919Z,101086.69
2022-11-14T18:57:17.861Z,101085.88
2022-11-14T18:59:47.730Z,101081.19
2022-11-14T19:02:17.539Z,101084.50
2022-11-14T19:04:47.462Z,101082.28
2022-11-14T19:07:17.261Z,101074.88
2022-11-14T19:09:47.227Z,101078.19
2022-11-14T19:12:18.861Z,101082.56
2022-11-14T19:14:47.449Z,101081.19
2022-11-14T19:17:20.786Z,101074.03
2022-11-14T19:19:53.827Z,101068.84
2022-11-14T19:22:23.516Z,101068.56
2022-11-14T19:24:51.364Z,101076.25
2022-11-14T19:27:22.106Z,101072.94
2022-11-14T19:29:52.225Z,101070.75
2022-11-14T19:32:22.028Z,101073.78
2022-11-14T19:34:52.100Z,101059.78
2022-11-14T19:37:22.127Z,101050.13
2022-11-14T19:39:55.693Z,101044.09
2022-11-14T19:42:23.587Z,101047.94
2022-11-14T19:44:51.636Z,101048.47
2022-11-14T19:47:20.473Z,101054.00
2022-11-14T19:49:50.001Z,101053.72
2022-11-14T19:52:19.970Z,101054.53
2022-11-14T19:54:49.308Z,101049.88
2022-11-14T19:57:16.745Z,101051.81
2022-11-14T19:59:45.120Z,101046.31
2022-11-14T20:02:15.266Z,101041.59
2022-11-14T20:04:46.907Z,101033.06
2022-11-14T20:07:17.115Z,101036.66
2022-11-14T20:09:47.177Z,101032.25
2022-11-14T20:12:19.663Z,101032.81
2022-11-14T20:14:47.419Z,101037.47
2022-11-14T20:17:17.360Z,101036.66
2022-11-14T20:19:47.079Z,101034.16
2022-11-14T20:22:18.729Z,101035.31
2022-11-14T20:24:48.374Z,101043.28
2022-11-14T20:27:18.221Z,101033.94
2022-11-14T20:29:48.113Z,101040.25
2022-11-14T20:32:17.957Z,101035.03
2022-11-14T20:34:47.814Z,101035.84
2022-11-14T20:37:17.706Z,101042.72
2022-11-14T20:39:47.648Z,101058.94
2022-11-14T20:42:18.128Z,101043.84
2022-11-14T20:44:47.742Z,101042.19
2022-11-14T20:47:17.523Z,101049.84
2022-11-14T20:49:46.425Z,101036.66
2022-11-14T20:52:16.317Z,101040.25
2022-11-14T20:54:44.597Z,101028.16
2022-11-14T20:57:13.276Z,101030.88
2022-11-14T20:59:41.578Z,101036.94
2022-11-14T21:02:13.069Z,101031.16
2022-11-14T21:04:42.000Z,101032.00
2022-11-14T21:07:12.337Z,101029.25
2022-11-14T21:09:42.305Z,101022.91
2022-11-14T21:12:19.277Z,101019.66
2022-11-14T21:14:47.694Z,101018.81
2022-11-14T21:17:14.898Z,101018.81
2022-11-14T21:19:44.969Z,101020.47
2022-11-14T21:22:15.350Z,101008.63
2022-11-14T21:24:45.267Z,101014.41
2022-11-14T21:27:15.290Z,101016.09
2022-11-14T21:29:45.406Z,101017.72
2022-11-14T21:32:15.538Z,101011.94
2022-11-14T21:34:45.703Z,101000.16
2022-11-14T21:37:15.855Z,101009.72
2022-11-14T21:39:48.280Z,101002.59
2022-11-14T21:42:18.873Z,101003.69
2022-11-14T21:44:48.172Z,100996.28
2022-11-14T21:47:18.304Z,100993.81
2022-11-14T21:49:48.438Z,100987.47
2022-11-14T21:52:18.569Z,100988.34
2022-11-14T21:54:48.679Z,100993.78
2022-11-14T21:57:19.925Z,100991.06
2022-11-14T21:59:49.033Z,100985.81
2022-11-14T22:02:37.972Z,100994.31
2022-11-14T22:05:08.567Z,100990.22
2022-11-14T22:07:42.203Z,100994.63
2022-11-14T22:10:11.591Z,100993.22
2022-11-14T22:12:41.645Z,100985.00
2022-11-14T22:15:11.899Z,100983.63
2022-11-14T22:17:43.076Z,100982.50
2022-11-14T22:20:12.602Z,100974.53
2022-11-14T22:22:42.717Z,100978.13
2022-11-14T22:25:12.968Z,100980.03
2022-11-14T22:27:43.141Z,100977.53
2022-11-14T22:30:14.128Z,100977.00
2022-11-14T22:32:41.815Z,100981.38
2022-11-14T22:35:10.165Z,100977.25
2022-11-14T22:37:38.616Z,100973.69
2022-11-14T22:40:08.718Z,100972.03
2022-11-14T22:42:38.809Z,100980.25
2022-11-14T22:45:08.656Z,100976.44
2022-11-14T22:47:35.831Z,100978.41
2022-11-14T22:50:08.103Z,100981.41
2022-11-14T22:52:38.279Z,100979.47
2022-11-14T22:55:12.432Z,100971.75
2022-11-14T22:57:45.444Z,100968.19
2022-11-14T23:00:17.542Z,100970.38
2022-11-14T23:02:45.193Z,100962.97
2022-11-14T23:05:13.726Z,100969.28
2022-11-14T23:07:42.089Z,100972.28
2022-11-14T23:10:11.179Z,100967.09
2022-11-14T23:12:39.012Z,100962.44
2022-11-14T23:15:07.948Z,100958.03
2022-11-14T23:17:35.909Z,100952.00
2022-11-14T23:20:05.082Z,100961.91
2022-11-14T23:22:32.725Z,100949.00
2022-11-14T23:25:01.090Z,100962.47
2022-11-14T23:27:29.468Z,100963.00
2022-11-14T23:29:57.909Z,100960.22
2022-11-14T23:32:30.357Z,100946.53
2022-11-14T23:35:00.448Z,100944.59
2022-11-14T23:37:30.533Z,100946.22
2022-11-14T23:40:00.804Z,100947.84
2022-11-14T23:42:30.911Z,100944.28
2022-11-14T23:45:01.020Z,100941.81
2022-11-14T23:47:31.173Z,100937.97
2022-11-14T23:50:01.291Z,100941.22
2022-11-14T23:52:31.557Z,100944.78
2022-11-14T23:55:03.188Z,100928.88
2022-11-14T23:57:33.341Z,100929.97
